Time;durP1;ratioP1;P1;durP2;ratioP2;P2;SDS_P1;SDS_P2;PMS_P1;PMS_P2;Temp;Humidity;BMP_temperature;BMP_pressure;BME280_temperature;BME280_humidity;BME280_pressure;Samples;Min_cycle;Max_cycle;Signal;HPM_P1;HPM_P2
2021/05/27 00:00:37;;;;;;;6.57;4.20;;;8.40;99.90;;;;;;5029816;28;20445;-79
2021/05/27 00:03:03;;;;;;;5.53;4.70;;;8.40;99.90;;;;;;5027100;28;20499;-78
2021/05/27 00:05:30;;;;;;;6.57;4.30;;;8.30;99.90;;;;;;5023206;28;20998;-79
2021/05/27 00:07:56;;;;;;;4.63;4.23;;;8.30;99.90;;;;;;5027642;28;20493;-80
2021/05/27 00:10:24;;;;;;;5.73;4.57;;;8.20;99.90;;;;;;5029738;28;20729;-79
2021/05/27 00:12:50;;;;;;;4.50;3.97;;;8.20;99.90;;;;;;5032140;28;20492;-79
2021/05/27 00:15:18;;;;;;;5.63;5.03;;;8.20;99.90;;;;;;5028150;28;20492;-79
2021/05/27 00:17:44;;;;;;;5.33;4.67;;;8.20;99.90;;;;;;5009029;28;20437;-80
2021/05/27 00:20:11;;;;;;;5.00;4.50;;;8.20;99.90;;;;;;5030632;28;20422;-80
2021/05/27 00:22:37;;;;;;;5.93;4.80;;;8.10;99.90;;;;;;5030799;28;20262;-80
2021/05/27 00:25:05;;;;;;;5.37;4.33;;;8.10;99.90;;;;;;5033164;28;20434;-80
2021/05/27 00:27:30;;;;;;;4.70;4.30;;;8.10;99.90;;;;;;5031349;28;20465;-79
2021/05/27 00:29:56;;;;;;;5.70;5.07;;;8.10;99.90;;;;;;5014689;28;20596;-79
2021/05/27 00:32:21;;;;;;;5.63;5.03;;;8.10;99.90;;;;;;5014683;28;20290;-80
2021/05/27 00:34:47;;;;;;;6.27;5.10;;;8.00;99.90;;;;;;5010508;28;20196;-79
2021/05/27 00:37:12;;;;;;;6.20;4.73;;;8.00;99.90;;;;;;5038506;28;20768;-77
2021/05/27 00:39:38;;;;;;;5.00;4.60;;;8.00;99.90;;;;;;5039111;28;20230;-80
2021/05/27 00:42:04;;;;;;;5.67;4.80;;;8.00;99.90;;;;;;5039933;28;20201;-79
2021/05/27 00:44:32;;;;;;;7.07;5.10;;;8.00;99.90;;;;;;5039162;28;20631;-79
2021/05/27 00:47:00;;;;;;;5.80;4.73;;;8.00;99.90;;;;;;5029319;28;20483;-78
2021/05/27 00:49:26;;;;;;;5.70;4.87;;;8.00;99.90;;;;;;5010362;28;21004;-79
2021/05/27 00:51:52;;;;;;;7.40;5.30;;;7.90;99.90;;;;;;5028547;28;20831;-77
2021/05/27 00:54:19;;;;;;;4.50;4.10;;;8.00;99.90;;;;;;5011002;28;20429;-77
2021/05/27 00:56:46;;;;;;;5.80;5.10;;;7.90;99.90;;;;;;5021693;28;20248;-78
2021/05/27 00:59:12;;;;;;;6.57;5.33;;;8.00;99.90;;;;;;5028058;28;20484;-80
2021/05/27 01:01:38;;;;;;;6.50;5.90;;;8.00;99.90;;;;;;5010128;28;20461;-79
2021/05/27 01:04:04;;;;;;;5.40;4.90;;;8.00;99.90;;;;;;5028361;28;20575;-80
2021/05/27 01:06:29;;;;;;;5.70;5.20;;;7.90;99.90;;;;;;5004851;28;20218;-79
2021/05/27 01:08:55;;;;;;;7.73;5.80;;;8.00;99.90;;;;;;5024663;28;20453;-79
2021/05/27 01:11:22;;;;;;;6.30;5.70;;;8.00;99.90;;;;;;5028330;28;20536;-79
2021/05/27 01:13:48;;;;;;;6.03;5.53;;;8.00;99.90;;;;;;5028365;28;20535;-80
2021/05/27 01:16:16;;;;;;;7.43;5.77;;;8.00;99.90;;;;;;5030041;28;20564;-80
2021/05/27 01:18:42;;;;;;;7.03;5.57;;;8.00;99.90;;;;;;5021287;28;20598;-80
2021/05/27 01:21:08;;;;;;;6.47;5.43;;;8.00;99.90;;;;;;5019453;28;20430;-78
2021/05/27 01:23:34;;;;;;;9.10;5.97;;;8.00;99.90;;;;;;5028739;28;20187;-79
2021/05/27 01:26:02;;;;;;;10.60;6.40;;;8.00;99.90;;;;;;5028294;28;20457;-80
2021/05/27 01:28:31;;;;;;;6.43;5.80;;;8.10;99.90;;;;;;5027220;28;20461;-78
2021/05/27 01:30:57;;;;;;;9.70;6.60;;;8.10;99.90;;;;;;5028720;28;20435;-78
2021/05/27 01:33:23;;;;;;;6.60;6.00;;;8.10;99.90;;;;;;5028293;28;20433;-81
2021/05/27 01:35:50;;;;;;;6.97;6.27;;;8.10;99.90;;;;;;5028453;28;20460;-80
2021/05/27 01:38:24;;;;;;;6.97;6.20;;;8.10;99.90;;;;;;5026737;28;20549;-80
2021/05/27 01:40:51;;;;;;;6.50;5.90;;;8.10;99.90;;;;;;5028233;28;20437;-80
2021/05/27 01:43:18;;;;;;;7.77;6.17;;;8.20;99.90;;;;;;5027982;28;20418;-80
2021/05/27 01:45:44;;;;;;;7.07;6.47;;;8.20;99.90;;;;;;5027401;28;20429;-79
2021/05/27 01:48:10;;;;;;;8.30;6.40;;;8.20;99.90;;;;;;5027478;28;20438;-78
2021/05/27 01:50:38;;;;;;;7.53;6.93;;;8.20;99.90;;;;;;5027347;28;20713;-78
2021/05/27 01:53:08;;;;;;;7.50;6.80;;;8.20;99.90;;;;;;5028747;28;20423;-81
2021/05/27 01:55:38;;;;;;;10.23;7.30;;;8.10;99.90;;;;;;5027770;28;20424;-79
2021/05/27 01:58:04;;;;;;;7.67;6.87;;;8.10;99.90;;;;;;5027310;28;20905;-77
2021/05/27 02:00:30;;;;;;;10.17;7.20;;;8.20;99.90;;;;;;5027637;28;20425;-78
2021/05/27 02:02:56;;;;;;;11.47;8.03;;;8.20;99.90;;;;;;5027520;28;20183;-79
2021/05/27 02:05:22;;;;;;;9.23;8.33;;;8.20;99.90;;;;;;5028494;28;20688;-79
2021/05/27 02:07:48;;;;;;;9.10;8.20;;;8.20;99.90;;;;;;5018543;28;20497;-78
2021/05/27 02:10:14;;;;;;;11.53;8.70;;;8.20;99.90;;;;;;5026812;28;20429;-79
2021/05/27 02:12:40;;;;;;;9.10;7.80;;;8.30;99.90;;;;;;5026239;28;20640;-79
2021/05/27 02:15:07;;;;;;;10.27;9.30;;;8.30;99.90;;;;;;5026715;28;20433;-77
2021/05/27 02:17:33;;;;;;;8.90;8.10;;;8.30;99.90;;;;;;5021388;28;20188;-78
2021/05/27 02:19:59;;;;;;;10.10;8.80;;;8.20;99.90;;;;;;5026607;28;20441;-78
2021/05/27 02:22:24;;;;;;;9.07;8.17;;;8.30;99.90;;;;;;5030458;28;20422;-78
2021/05/27 02:24:50;;;;;;;10.57;9.43;;;8.30;99.90;;;;;;5027046;28;20610;-78
2021/05/27 02:27:16;;;;;;;10.70;8.60;;;8.30;99.90;;;;;;5026656;28;20280;-79
2021/05/27 02:29:42;;;;;;;9.93;8.90;;;8.30;99.90;;;;;;5027063;28;20441;-78
2021/05/27 02:32:08;;;;;;;10.83;9.73;;;8.30;99.90;;;;;;5032628;28;20171;-77
2021/05/27 02:34:34;;;;;;;11.17;10.00;;;8.20;99.90;;;;;;5026668;28;20917;-77
2021/05/27 02:37:00;;;;;;;11.53;10.33;;;8.30;99.90;;;;;;5031701;28;20188;-77
2021/05/27 02:39:25;;;;;;;10.83;9.73;;;8.20;99.90;;;;;;5007666;28;20542;-78
2021/05/27 02:41:51;;;;;;;11.50;10.20;;;8.30;99.90;;;;;;5030371;28;20190;-78
2021/05/27 02:44:16;;;;;;;11.60;10.13;;;8.30;99.90;;;;;;5027396;28;20183;-77
2021/05/27 02:46:42;;;;;;;11.53;9.77;;;8.30;99.90;;;;;;5027457;28;20220;-79
2021/05/27 02:49:08;;;;;;;11.50;10.30;;;8.30;99.90;;;;;;5024136;28;20199;-77
2021/05/27 02:51:33;;;;;;;11.73;10.53;;;8.30;99.90;;;;;;5020669;28;20694;-78
2021/05/27 02:53:59;;;;;;;10.20;9.03;;;8.30;99.90;;;;;;5027385;28;20195;-79
2021/05/27 02:56:25;;;;;;;11.67;10.47;;;8.30;99.90;;;;;;5027282;28;20725;-79
2021/05/27 02:58:50;;;;;;;10.47;9.40;;;8.40;99.90;;;;;;5018095;28;20668;-79
2021/05/27 03:01:16;;;;;;;14.20;9.70;;;8.40;99.90;;;;;;5035931;28;20183;-78
2021/05/27 03:03:42;;;;;;;12.90;9.83;;;8.40;99.90;;;;;;5026746;28;20658;-78
2021/05/27 03:06:08;;;;;;;11.60;10.50;;;8.40;99.90;;;;;;5026687;28;20701;-78
2021/05/27 03:08:35;;;;;;;10.30;7.97;;;8.40;99.90;;;;;;5020591;28;20207;-78
2021/05/27 03:11:01;;;;;;;14.57;10.20;;;8.40;99.90;;;;;;5013423;28;20179;-79
2021/05/27 03:13:26;;;;;;;11.10;8.87;;;8.40;99.90;;;;;;5026108;28;20929;-79
2021/05/27 03:15:52;;;;;;;10.93;8.70;;;8.40;99.90;;;;;;5026602;28;20214;-77
2021/05/27 03:18:18;;;;;;;10.17;9.10;;;8.40;99.90;;;;;;5015068;28;20196;-78
2021/05/27 03:20:44;;;;;;;12.87;10.17;;;8.40;99.90;;;;;;5027340;28;20428;-80
2021/05/27 03:23:10;;;;;;;9.30;8.30;;;8.50;99.90;;;;;;5028397;28;20175;-78
2021/05/27 03:25:36;;;;;;;11.00;8.97;;;8.50;99.90;;;;;;5030581;28;20936;-78
2021/05/27 03:28:02;;;;;;;10.70;9.60;;;8.50;99.90;;;;;;5030246;28;20457;-78
2021/05/27 03:30:28;;;;;;;10.10;8.60;;;8.50;99.90;;;;;;5033830;28;20214;-79
2021/05/27 03:32:54;;;;;;;10.33;8.90;;;8.50;99.90;;;;;;5036002;28;20453;-80
2021/05/27 03:35:20;;;;;;;12.10;8.60;;;8.50;99.90;;;;;;5036128;28;20422;-80
2021/05/27 03:37:45;;;;;;;12.20;10.13;;;8.50;99.90;;;;;;5013579;28;20836;-78
2021/05/27 03:40:14;;;;;;;10.90;9.80;;;8.50;99.90;;;;;;5018457;28;20223;-79
2021/05/27 03:42:43;;;;;;;8.83;7.93;;;8.50;99.90;;;;;;5036100;28;20214;-81
2021/05/27 03:45:11;;;;;;;9.97;8.33;;;8.50;99.90;;;;;;5034001;28;20498;-80
2021/05/27 03:47:38;;;;;;;9.00;8.20;;;8.50;99.90;;;;;;5013784;28;20812;-79
2021/05/27 03:50:05;;;;;;;10.40;9.10;;;8.60;99.90;;;;;;5029896;28;20449;-80
2021/05/27 03:52:31;;;;;;;9.53;8.53;;;8.60;99.90;;;;;;5025697;28;20775;-79
2021/05/27 03:54:57;;;;;;;12.00;10.07;;;8.60;99.90;;;;;;5036452;28;20421;-79
2021/05/27 03:57:22;;;;;;;11.87;10.67;;;8.60;99.90;;;;;;5029580;28;20635;-76
2021/05/27 04:02:32;;;;;;;10.87;9.23;;;8.60;99.90;;;;;;5029889;28;20191;-79
2021/05/27 04:07:42;;;;;;;11.47;9.33;;;8.60;99.90;;;;;;5029896;28;20995;-79
2021/05/27 04:10:09;;;;;;;10.93;9.77;;;8.60;99.90;;;;;;5030009;28;20453;-79
2021/05/27 04:12:45;;;;;;;11.20;10.00;;;8.60;99.90;;;;;;5023565;28;20198;-79
2021/05/27 04:15:23;;;;;;;10.60;9.60;;;8.60;99.90;;;;;;5029843;28;20470;-78
2021/05/27 04:17:53;;;;;;;11.00;9.83;;;8.60;99.90;;;;;;5029438;28;20930;-79
2021/05/27 04:20:20;;;;;;;10.87;9.87;;;8.60;99.90;;;;;;5003754;28;20421;-79
2021/05/27 04:22:47;;;;;;;11.17;9.87;;;8.60;99.90;;;;;;5022751;28;20434;-78
2021/05/27 04:25:15;;;;;;;10.77;9.67;;;8.60;99.90;;;;;;5029696;28;20437;-78
2021/05/27 04:27:41;;;;;;;10.23;9.23;;;8.60;99.90;;;;;;5030206;28;20469;-79
2021/05/27 04:30:17;;;;;;;10.90;9.40;;;8.60;99.90;;;;;;5031047;28;20444;-78
2021/05/27 04:35:27;;;;;;;11.70;9.73;;;8.60;99.90;;;;;;5021413;28;20446;-79
2021/05/27 04:37:55;;;;;;;14.53;10.40;;;8.60;99.90;;;;;;5030848;28;20441;-79
2021/05/27 04:40:21;;;;;;;11.53;10.53;;;8.60;99.90;;;;;;5029700;28;20426;-79
2021/05/27 04:42:46;;;;;;;11.20;10.10;;;8.60;99.90;;;;;;5029059;28;20428;-78
2021/05/27 04:45:12;;;;;;;10.80;9.50;;;8.60;99.90;;;;;;5029014;28;20321;-79
2021/05/27 04:47:38;;;;;;;11.23;10.13;;;8.60;99.90;;;;;;5028721;28;20706;-79
2021/05/27 04:50:06;;;;;;;12.27;10.27;;;8.60;99.90;;;;;;5010908;28;20479;-78
2021/05/27 04:52:32;;;;;;;13.07;10.80;;;8.60;99.90;;;;;;5028928;28;20182;-78
2021/05/27 04:54:57;;;;;;;12.03;10.83;;;8.60;99.90;;;;;;5021170;28;20530;-79
2021/05/27 04:57:23;;;;;;;11.47;10.07;;;8.60;99.90;;;;;;5029216;28;20245;-79
2021/05/27 04:59:49;;;;;;;10.40;9.47;;;8.60;99.90;;;;;;5029983;28;20679;-80
2021/05/27 05:02:14;;;;;;;11.70;10.60;;;8.50;99.90;;;;;;5028401;28;20194;-80
2021/05/27 05:04:40;;;;;;;13.20;10.20;;;8.60;99.90;;;;;;5028885;28;20277;-77
2021/05/27 05:07:05;;;;;;;15.87;11.43;;;8.60;99.90;;;;;;5029369;28;20257;-79
2021/05/27 05:09:31;;;;;;;11.37;10.27;;;8.60;99.90;;;;;;5028693;28;20218;-77
2021/05/27 05:11:56;;;;;;;12.60;11.30;;;8.60;99.90;;;;;;5020973;28;20691;-79
2021/05/27 05:14:22;;;;;;;11.60;10.13;;;8.60;99.90;;;;;;5011013;28;20175;-80
2021/05/27 05:16:47;;;;;;;12.03;10.83;;;8.60;99.90;;;;;;5028586;28;20202;-78
2021/05/27 05:19:13;;;;;;;10.47;9.47;;;8.60;99.90;;;;;;5029028;28;20207;-79
2021/05/27 05:21:38;;;;;;;14.07;10.90;;;8.60;99.90;;;;;;5039165;28;20208;-79
2021/05/27 05:24:04;;;;;;;13.33;10.77;;;8.70;99.90;;;;;;5037839;28;20187;-79
2021/05/27 05:26:30;;;;;;;13.50;10.23;;;8.70;99.90;;;;;;5029344;28;20581;-81
2021/05/27 05:28:56;;;;;;;14.17;11.47;;;8.70;99.90;;;;;;5029110;28;20442;-79
2021/05/27 05:31:22;;;;;;;11.43;10.23;;;8.70;99.90;;;;;;5028799;28;20179;-79
2021/05/27 05:33:48;;;;;;;12.20;11.00;;;8.70;99.90;;;;;;5028217;28;20848;-79
2021/05/27 05:36:14;;;;;;;12.40;10.40;;;8.70;99.90;;;;;;5029144;28;20186;-80
2021/05/27 05:38:40;;;;;;;12.00;10.33;;;8.70;99.90;;;;;;5015438;28;20453;-79
2021/05/27 05:41:06;;;;;;;13.27;11.93;;;8.80;99.90;;;;;;5034939;28;20445;-79
2021/05/27 05:43:31;;;;;;;22.73;11.30;;;8.80;99.90;;;;;;5033671;28;20187;-80
2021/05/27 05:45:57;;;;;;;12.20;10.63;;;8.80;99.90;;;;;;5036429;28;20195;-79
2021/05/27 05:48:22;;;;;;;13.00;11.50;;;8.70;99.90;;;;;;5036567;28;20203;-80
2021/05/27 05:50:49;;;;;;;13.50;10.63;;;8.80;99.90;;;;;;5037724;28;20190;-77
2021/05/27 05:53:22;;;;;;;11.13;10.03;;;8.80;99.90;;;;;;5039972;28;20209;-80
2021/05/27 05:55:50;;;;;;;11.53;10.43;;;8.80;99.90;;;;;;5033980;28;20489;-80
2021/05/27 05:58:16;;;;;;;11.17;10.07;;;8.90;99.90;;;;;;5047376;28;20440;-80
2021/05/27 06:00:42;;;;;;;12.20;10.90;;;8.90;99.90;;;;;;5032893;28;20429;-78
2021/05/27 06:03:07;;;;;;;11.20;10.00;;;8.90;99.90;;;;;;5030444;28;20413;-79
2021/05/27 06:05:33;;;;;;;10.70;9.60;;;8.90;99.90;;;;;;5022499;28;20442;-78
2021/05/27 06:07:59;;;;;;;11.70;10.60;;;8.90;99.90;;;;;;5026413;28;20206;-77
2021/05/27 06:10:25;;;;;;;11.33;10.23;;;8.90;99.90;;;;;;5028522;28;20183;-79
2021/05/27 06:12:57;;;;;;;11.00;10.00;;;9.00;99.90;;;;;;5027908;28;20183;-79
2021/05/27 06:15:24;;;;;;;11.13;10.03;;;8.90;99.90;;;;;;5022521;28;20442;-79
2021/05/27 06:17:54;;;;;;;15.20;11.00;;;9.00;99.90;;;;;;5028899;28;20430;-79
2021/05/27 06:20:22;;;;;;;11.43;10.23;;;9.00;99.90;;;;;;5021166;28;20414;-78
2021/05/27 06:22:48;;;;;;;10.67;9.57;;;9.00;99.90;;;;;;5009526;28;20857;-79
2021/05/27 06:25:14;;;;;;;10.70;9.60;;;9.00;99.90;;;;;;5030082;28;20692;-79
2021/05/27 06:27:41;;;;;;;13.90;10.27;;;9.00;99.90;;;;;;5012202;28;20612;-79
2021/05/27 06:30:08;;;;;;;11.40;10.10;;;9.10;99.90;;;;;;5028154;28;21011;-79
2021/05/27 06:32:36;;;;;;;11.70;9.43;;;9.10;99.90;;;;;;5028803;28;20428;-79
2021/05/27 06:35:07;;;;;;;10.13;9.13;;;9.20;99.90;;;;;;5009744;28;20426;-79
2021/05/27 06:37:37;;;;;;;17.53;9.67;;;9.10;99.90;;;;;;5027651;28;20430;-79
2021/05/27 06:40:05;;;;;;;11.53;10.30;;;9.20;99.90;;;;;;5009242;28;20486;-79
2021/05/27 06:42:30;;;;;;;11.13;9.97;;;9.20;99.90;;;;;;5027267;28;20962;-79
2021/05/27 06:44:56;;;;;;;11.50;9.40;;;9.30;99.90;;;;;;5027624;28;20456;-78
2021/05/27 06:47:21;;;;;;;10.57;9.10;;;9.30;99.90;;;;;;5027046;28;20631;-77
2021/05/27 06:49:47;;;;;;;10.43;9.33;;;9.30;99.90;;;;;;5026703;28;20646;-77
2021/05/27 06:52:13;;;;;;;13.93;9.03;;;9.30;99.90;;;;;;5003506;28;20225;-79
2021/05/27 06:54:38;;;;;;;11.00;8.57;;;9.40;99.90;;;;;;5027264;28;20659;-79
2021/05/27 06:57:04;;;;;;;9.17;8.43;;;9.40;99.90;;;;;;5027009;28;20191;-78
2021/05/27 06:59:29;;;;;;;8.17;7.40;;;9.50;99.90;;;;;;5029413;28;20214;-79
2021/05/27 07:01:55;;;;;;;10.53;8.20;;;9.60;99.90;;;;;;5030096;28;20270;-78
2021/05/27 07:04:21;;;;;;;8.83;7.97;;;9.60;99.90;;;;;;5028005;28;20190;-77
2021/05/27 07:06:46;;;;;;;9.60;8.70;;;9.60;99.90;;;;;;5031104;28;20203;-77
2021/05/27 07:09:13;;;;;;;9.07;8.27;;;9.60;99.90;;;;;;5030696;28;20210;-78
2021/05/27 07:11:38;;;;;;;10.93;8.17;;;9.60;99.90;;;;;;5030984;28;20198;-79
2021/05/27 07:14:04;;;;;;;8.97;8.17;;;9.70;99.90;;;;;;5031166;28;20421;-79
2021/05/27 07:16:30;;;;;;;7.93;7.20;;;9.70;99.90;;;;;;5031074;28;20204;-79
2021/05/27 07:18:55;;;;;;;9.87;8.87;;;9.70;99.90;;;;;;5030876;28;20218;-78
2021/05/27 07:21:21;;;;;;;8.40;7.63;;;9.70;99.90;;;;;;5012895;28;20190;-79
2021/05/27 07:23:46;;;;;;;8.90;8.13;;;9.80;99.90;;;;;;5030539;28;20274;-78
2021/05/27 07:26:12;;;;;;;10.07;7.73;;;9.90;99.90;;;;;;5030569;28;20242;-79
2021/05/27 07:28:38;;;;;;;9.87;8.37;;;10.00;99.90;;;;;;5012667;28;20203;-78
2021/05/27 07:31:05;;;;;;;8.07;7.37;;;10.00;99.90;;;;;;5030624;28;20186;-79
2021/05/27 07:33:31;;;;;;;9.00;8.00;;;10.20;99.90;;;;;;5030342;28;20197;-79
2021/05/27 07:35:56;;;;;;;8.23;7.43;;;10.30;99.90;;;;;;5030538;28;20508;-78
2021/05/27 07:38:22;;;;;;;7.77;6.97;;;10.30;99.90;;;;;;5030580;28;20221;-78
2021/05/27 07:40:47;;;;;;;8.60;7.57;;;10.30;99.90;;;;;;5012839;28;20306;-79
2021/05/27 07:43:14;;;;;;;8.30;7.60;;;10.30;99.90;;;;;;5012932;28;20617;-79
2021/05/27 07:45:40;;;;;;;9.00;8.20;;;10.40;99.90;;;;;;5023302;28;20270;-79
2021/05/27 07:48:06;;;;;;;8.60;7.53;;;10.50;99.90;;;;;;5030618;28;20560;-79
2021/05/27 07:50:32;;;;;;;9.77;7.87;;;10.60;99.90;;;;;;5031694;28;20426;-79
2021/05/27 07:52:58;;;;;;;8.03;7.33;;;10.70;99.90;;;;;;5014284;28;20193;-79
2021/05/27 07:55:25;;;;;;;8.50;7.10;;;10.90;99.90;;;;;;5011465;28;20444;-79
2021/05/27 07:57:51;;;;;;;9.23;7.03;;;11.00;99.90;;;;;;5013316;28;20491;-79
2021/05/27 08:00:18;;;;;;;8.37;7.67;;;11.10;99.90;;;;;;5031597;28;20426;-79
2021/05/27 08:02:44;;;;;;;8.20;7.50;;;11.10;99.90;;;;;;5031084;28;20278;-80
2021/05/27 08:05:12;;;;;;;8.20;7.27;;;11.10;99.90;;;;;;5030295;28;20638;-77
2021/05/27 08:07:37;;;;;;;9.50;8.60;;;11.10;99.90;;;;;;5029751;28;20263;-77
2021/05/27 08:10:04;;;;;;;8.70;7.90;;;11.10;99.90;;;;;;5029960;28;20856;-75
2021/05/27 08:12:30;;;;;;;18.97;8.20;;;11.10;99.90;;;;;;5031065;28;20294;-81
2021/05/27 08:14:57;;;;;;;8.77;7.87;;;11.00;99.90;;;;;;5030165;28;20534;-79
2021/05/27 08:17:23;;;;;;;9.83;8.90;;;11.00;99.90;;;;;;5029562;28;20200;-79
2021/05/27 08:19:49;;;;;;;9.50;7.40;;;11.20;99.90;;;;;;5030336;28;20861;-80
2021/05/27 08:22:16;;;;;;;8.50;7.50;;;11.30;99.90;;;;;;5011993;28;20635;-78
2021/05/27 08:24:42;;;;;;;8.80;7.90;;;11.30;99.90;;;;;;5030050;28;20193;-80
2021/05/27 08:27:08;;;;;;;7.60;6.90;;;11.50;99.90;;;;;;5009036;28;20471;-80
2021/05/27 08:29:33;;;;;;;8.27;7.47;;;11.60;99.90;;;;;;5024129;28;20454;-77
2021/05/27 08:31:59;;;;;;;8.00;7.20;;;11.70;99.90;;;;;;5030010;28;20237;-77
2021/05/27 08:34:24;;;;;;;9.27;7.40;;;11.70;99.90;;;;;;5029863;28;20632;-77
2021/05/27 08:36:50;;;;;;;9.00;8.20;;;11.80;99.90;;;;;;5029707;28;20804;-76
2021/05/27 08:39:16;;;;;;;10.53;7.33;;;11.80;99.90;;;;;;5000719;28;20265;-80
2021/05/27 08:41:42;;;;;;;9.40;8.27;;;11.80;99.90;;;;;;5008708;28;20591;-79
2021/05/27 08:44:08;;;;;;;7.40;6.70;;;11.80;99.90;;;;;;5029467;28;20252;-78
2021/05/27 08:46:34;;;;;;;8.83;7.90;;;11.70;99.90;;;;;;5008528;28;20207;-78
2021/05/27 08:49:00;;;;;;;10.20;8.03;;;11.80;99.90;;;;;;5008087;28;20458;-79
2021/05/27 08:51:28;;;;;;;7.60;6.90;;;11.80;99.90;;;;;;5029428;28;20188;-79
2021/05/27 08:53:55;;;;;;;8.03;6.90;;;11.70;99.90;;;;;;5029606;28;20437;-79
2021/05/27 08:56:21;;;;;;;8.20;7.40;;;11.80;99.90;;;;;;5028698;28;20521;-79
2021/05/27 08:58:46;;;;;;;9.10;8.20;;;11.80;99.90;;;;;;5028572;28;21031;-79
2021/05/27 09:01:12;;;;;;;8.33;7.50;;;11.90;99.90;;;;;;5023147;28;20202;-79
2021/05/27 09:03:42;;;;;;;9.37;7.60;;;11.90;99.90;;;;;;5011351;28;20187;-78
2021/05/27 09:06:10;;;;;;;7.83;7.13;;;11.90;99.90;;;;;;5028834;28;20190;-78
2021/05/27 09:08:38;;;;;;;6.53;6.03;;;12.10;99.90;;;;;;5024297;28;20586;-78
2021/05/27 09:11:06;;;;;;;6.80;6.20;;;12.20;99.90;;;;;;5028545;28;20911;-79
2021/05/27 09:13:32;;;;;;;8.20;6.10;;;12.20;99.90;;;;;;5037136;28;20441;-79
2021/05/27 09:16:07;;;;;;;7.37;6.63;;;12.50;99.90;;;;;;5032942;28;20570;-78
2021/05/27 09:18:35;;;;;;;8.40;7.70;;;12.60;99.90;;;;;;5029161;28;20868;-78
2021/05/27 09:21:01;;;;;;;6.90;6.20;;;12.60;99.90;;;;;;5028110;28;20437;-80
2021/05/27 09:23:27;;;;;;;7.50;6.90;;;12.60;99.90;;;;;;5028858;28;20976;-79
2021/05/27 09:26:13;;;;;;;6.80;6.20;;;12.50;99.90;;;;;;5029071;28;20414;-80
2021/05/27 09:28:39;;;;;;;6.43;5.87;;;12.50;99.90;;;;;;5016823;28;20221;-77
2021/05/27 09:31:08;;;;;;;6.50;6.00;;;12.60;99.90;;;;;;5018149;28;20514;-78
2021/05/27 09:33:37;;;;;;;6.43;5.83;;;12.60;99.90;;;;;;5010706;28;20556;-77
2021/05/27 09:36:11;;;;;;;6.27;5.60;;;12.70;99.90;;;;;;5028860;28;20427;-79
2021/05/27 09:38:39;;;;;;;5.80;5.20;;;12.70;99.90;;;;;;5009909;28;21006;-79
2021/05/27 09:41:34;;;;;;;5.73;5.33;;;12.80;99.90;;;;;;5028245;28;20481;-79
2021/05/27 09:44:02;;;;;;;5.53;5.13;;;12.70;99.90;;;;;;4965512;28;20436;-79
2021/05/27 09:46:46;;;;;;;5.90;5.40;;;12.80;99.90;;;;;;4967749;28;20468;-80
2021/05/27 09:49:11;;;;;;;6.47;5.80;;;12.80;99.90;;;;;;4963323;28;21086;-77
2021/05/27 09:51:37;;;;;;;6.40;5.80;;;12.70;99.90;;;;;;4948035;28;20444;-77
2021/05/27 09:54:04;;;;;;;6.67;6.07;;;12.80;99.90;;;;;;4945415;28;20186;-78
2021/05/27 09:56:40;;;;;;;6.30;5.57;;;12.80;99.90;;;;;;4966558;28;20438;-76
2021/05/27 09:59:08;;;;;;;5.87;5.27;;;13.00;99.90;;;;;;4968117;28;20848;-75
2021/05/27 10:01:34;;;;;;;5.67;5.17;;;13.20;99.90;;;;;;4943814;28;20878;-75
2021/05/27 10:04:13;;;;;;;5.80;5.30;;;13.30;99.90;;;;;;4962874;28;20435;-79
2021/05/27 10:06:39;;;;;;;7.10;6.43;;;13.30;99.90;;;;;;4966602;28;20760;-78
2021/05/27 10:09:08;;;;;;;5.80;5.30;;;13.30;99.90;;;;;;4941868;28;20454;-80
2021/05/27 10:11:33;;;;;;;7.00;5.47;;;13.30;99.90;;;;;;4942976;28;20862;-81
2021/05/27 10:14:00;;;;;;;5.60;5.10;;;13.40;99.90;;;;;;4947726;28;20456;-80
2021/05/27 10:16:26;;;;;;;5.70;5.20;;;13.50;99.90;;;;;;4950726;28;20189;-81
2021/05/27 10:18:57;;;;;;;4.93;4.53;;;13.50;99.90;;;;;;4966613;28;20463;-79
2021/05/27 10:21:26;;;;;;;5.80;5.30;;;13.40;99.90;;;;;;5024289;28;20195;-79
2021/05/27 10:23:53;;;;;;;8.87;5.13;;;13.50;99.90;;;;;;5029869;28;20941;-80
2021/05/27 10:26:20;;;;;;;5.90;5.40;;;13.50;99.90;;;;;;5012031;28;20422;-81
2021/05/27 10:28:48;;;;;;;5.70;5.20;;;13.50;99.90;;;;;;5013470;28;21006;-79
2021/05/27 10:31:14;;;;;;;5.70;5.30;;;13.50;99.90;;;;;;5024437;28;20496;-81
2021/05/27 10:33:42;;;;;;;6.27;5.20;;;13.40;99.90;;;;;;5010468;28;20934;-81
2021/05/27 10:36:11;;;;;;;4.77;4.37;;;13.20;99.90;;;;;;5029947;28;20903;-80
2021/05/27 10:38:37;;;;;;;4.70;4.33;;;13.20;99.90;;;;;;5028961;28;20434;-81
2021/05/27 10:41:03;;;;;;;5.47;4.93;;;13.10;99.90;;;;;;5027510;28;20875;-80
2021/05/27 10:43:29;;;;;;;5.77;5.17;;;13.20;99.90;;;;;;5008094;28;20565;-81
2021/05/27 10:45:58;;;;;;;5.50;5.00;;;13.10;99.90;;;;;;5028179;28;20475;-81
2021/05/27 10:48:28;;;;;;;6.60;4.97;;;13.10;99.90;;;;;;5028370;28;20210;-81
2021/05/27 10:53:38;;;;;;;5.00;4.53;;;13.10;99.90;;;;;;5024857;28;20433;-79
2021/05/27 10:56:10;;;;;;;5.13;4.63;;;13.10;99.90;;;;;;5010455;28;20461;-80
2021/05/27 10:58:48;;;;;;;5.70;4.63;;;13.20;99.90;;;;;;5027454;28;20437;-80
2021/05/27 11:01:19;;;;;;;10.03;4.70;;;13.20;99.90;;;;;;5031197;28;20913;-81
2021/05/27 11:03:49;;;;;;;4.67;4.27;;;13.30;99.90;;;;;;5024347;28;20541;-81
2021/05/27 11:06:40;;;;;;;3.87;3.57;;;13.50;99.90;;;;;;5029955;28;20902;-79
2021/05/27 11:09:23;;;;;;;3.53;3.23;;;13.50;99.90;;;;;;5011050;28;20446;-80
2021/05/27 11:11:55;;;;;;;4.03;3.63;;;13.70;99.90;;;;;;5011306;28;20430;-81
2021/05/27 11:14:31;;;;;;;4.20;3.40;;;14.00;99.90;;;;;;5027914;28;20422;-80
2021/05/27 11:17:15;;;;;;;3.80;3.60;;;13.90;99.90;;;;;;5018910;28;20551;-80
2021/05/27 11:25:14;;;;;;;4.80;3.27;;;14.40;99.90;;;;;;5038157;28;20799;-79
2021/05/27 11:27:49;;;;;;;4.50;3.33;;;14.30;99.90;;;;;;5033888;28;20453;-81
2021/05/27 11:30:32;;;;;;;3.50;3.20;;;14.40;99.90;;;;;;5028361;28;20417;-80
2021/05/27 11:33:04;;;;;;;2.97;2.77;;;14.40;99.90;;;;;;5019672;28;20522;-82
2021/05/27 11:35:37;;;;;;;4.63;2.77;;;14.50;99.90;;;;;;5029053;28;20410;-79
2021/05/27 11:38:04;;;;;;;7.10;3.60;;;14.50;99.90;;;;;;5033202;28;20413;-81
2021/05/27 11:40:32;;;;;;;3.27;2.93;;;14.40;99.90;;;;;;5028774;28;20495;-81
2021/05/27 11:42:58;;;;;;;3.07;2.87;;;14.30;99.90;;;;;;5027095;28;20480;-81
2021/05/27 11:45:26;;;;;;;3.20;3.00;;;14.30;99.90;;;;;;5011802;28;20425;-81
2021/05/27 11:48:17;;;;;;;4.47;3.20;;;14.40;99.90;;;;;;5014886;28;20211;-80
2021/05/27 11:50:43;;;;;;;3.33;3.00;;;14.50;99.90;;;;;;5010039;28;20468;-80
2021/05/27 11:53:09;;;;;;;4.30;2.90;;;14.40;99.90;;;;;;5029363;28;20423;-81
2021/05/27 11:55:35;;;;;;;3.80;3.13;;;14.30;99.90;;;;;;5031600;28;20470;-82
2021/05/27 11:58:02;;;;;;;3.47;3.27;;;14.20;99.90;;;;;;5014985;28;20413;-80
2021/05/27 12:00:28;;;;;;;4.47;2.90;;;14.20;99.90;;;;;;5044420;28;20451;-80
2021/05/27 12:02:56;;;;;;;3.10;2.67;;;14.20;99.90;;;;;;5029431;28;20424;-81
2021/05/27 12:05:25;;;;;;;3.23;2.93;;;14.20;99.90;;;;;;5047658;28;20195;-80
2021/05/27 12:08:12;;;;;;;4.07;3.67;;;14.10;99.90;;;;;;5034930;28;20473;-80
2021/05/27 12:10:50;;;;;;;3.60;3.30;;;14.00;99.90;;;;;;5029113;28;20805;-82
2021/05/27 12:13:18;;;;;;;3.80;3.50;;;14.00;99.90;;;;;;5033384;28;20456;-80
2021/05/27 12:15:45;;;;;;;3.10;2.90;;;13.90;99.90;;;;;;5037597;28;20478;-81
2021/05/27 12:18:15;;;;;;;4.00;3.70;;;13.80;99.90;;;;;;5035700;28;20433;-81
2021/05/27 12:20:42;;;;;;;3.37;3.07;;;13.80;99.90;;;;;;5053980;28;20428;-83
2021/05/27 12:23:13;;;;;;;5.27;4.50;;;13.70;99.90;;;;;;5052529;28;20430;-82
2021/05/27 12:25:46;;;;;;;3.40;3.10;;;13.50;99.90;;;;;;5036199;28;20434;-81
2021/05/27 12:28:19;;;;;;;4.13;3.50;;;13.40;99.90;;;;;;5035444;28;20474;-83
2021/05/27 12:30:49;;;;;;;3.33;3.03;;;13.10;99.90;;;;;;5047935;28;20422;-82
2021/05/27 12:33:18;;;;;;;4.90;3.60;;;12.80;99.90;;;;;;5048011;28;20854;-82
2021/05/27 12:35:44;;;;;;;6.30;4.03;;;12.60;99.90;;;;;;5043594;28;20422;-81
2021/05/27 12:38:30;;;;;;;8.17;5.00;;;12.60;99.90;;;;;;5034755;28;20480;-81
2021/05/27 12:41:05;;;;;;;4.03;3.63;;;12.50;99.90;;;;;;5032708;28;20988;-80
2021/05/27 12:43:37;;;;;;;4.40;3.70;;;12.50;99.90;;;;;;5032639;28;20487;-81
2021/05/27 12:46:05;;;;;;;5.40;3.83;;;12.50;99.90;;;;;;5030688;28;20485;-81
2021/05/27 12:48:32;;;;;;;8.20;5.30;;;12.40;99.90;;;;;;5032031;28;20492;-82
2021/05/27 12:51:04;;;;;;;7.80;5.40;;;12.40;99.90;;;;;;5031693;28;20513;-81
2021/05/27 12:53:48;;;;;;;9.80;6.40;;;12.40;99.90;;;;;;5031669;28;20750;-81
2021/05/27 12:56:24;;;;;;;5.30;4.80;;;12.40;99.90;;;;;;5036751;28;20430;-82
2021/05/27 12:58:55;;;;;;;11.30;7.30;;;12.40;99.90;;;;;;5031112;28;20425;-82
2021/05/27 13:01:37;;;;;;;13.50;5.50;;;12.20;99.90;;;;;;5023827;28;20501;-82
2021/05/27 13:04:05;;;;;;;8.10;5.43;;;12.20;99.90;;;;;;5031031;28;20406;-82
2021/05/27 13:06:33;;;;;;;7.47;4.70;;;12.20;99.90;;;;;;5016777;28;20457;-79